sensor_id;sensor_type;location;lat;lon;timestamp;P1;durP1;ratioP1;P2;durP2;ratioP2
10154;SDS011;5118;48.570;7.916;2023-03-01T00:01:22;33.83;;;21.77;;
10154;SDS011;5118;48.570;7.916;2023-03-01T00:03:52;33.20;;;21.80;;
10154;SDS011;5118;48.570;7.916;2023-03-01T00:06:21;27.53;;;19.77;;
10154;SDS011;5118;48.570;7.916;2023-03-01T00:08:50;28.60;;;19.07;;
10154;SDS011;5118;48.570;7.916;2023-03-01T00:11:20;31.60;;;20.30;;
10154;SDS011;5118;48.570;7.916;2023-03-01T00:13:50;29.77;;;20.20;;
10154;SDS011;5118;48.570;7.916;2023-03-01T00:16:22;34.03;;;20.77;;
10154;SDS011;5118;48.570;7.916;2023-03-01T00:18:53;29.27;;;19.17;;
10154;SDS011;5118;48.570;7.916;2023-03-01T00:21:21;28.73;;;18.77;;
10154;SDS011;5118;48.570;7.916;2023-03-01T00:23:51;26.03;;;17.43;;
10154;SDS011;5118;48.570;7.916;2023-03-01T00:26:21;24.00;;;17.73;;
10154;SDS011;5118;48.570;7.916;2023-03-01T00:28:50;28.23;;;18.87;;
10154;SDS011;5118;48.570;7.916;2023-03-01T00:31:22;25.47;;;17.57;;
10154;SDS011;5118;48.570;7.916;2023-03-01T00:33:52;25.30;;;17.27;;
10154;SDS011;5118;48.570;7.916;2023-03-01T00:36:24;25.73;;;18.13;;
10154;SDS011;5118;48.570;7.916;2023-03-01T00:38:54;24.47;;;17.83;;
10154;SDS011;5118;48.570;7.916;2023-03-01T00:41:23;25.87;;;18.03;;
10154;SDS011;5118;48.570;7.916;2023-03-01T00:43:55;26.03;;;18.53;;
10154;SDS011;5118;48.570;7.916;2023-03-01T00:46:25;26.87;;;18.13;;
10154;SDS011;5118;48.570;7.916;2023-03-01T00:48:54;27.57;;;19.67;;
10154;SDS011;5118;48.570;7.916;2023-03-01T00:51:24;28.80;;;19.07;;
10154;SDS011;5118;48.570;7.916;2023-03-01T00:53:56;34.20;;;22.37;;
10154;SDS011;5118;48.570;7.916;2023-03-01T00:56:26;29.73;;;20.17;;
10154;SDS011;5118;48.570;7.916;2023-03-01T00:58:56;29.63;;;19.83;;
10154;SDS011;5118;48.570;7.916;2023-03-01T01:01:25;28.40;;;19.53;;
10154;SDS011;5118;48.570;7.916;2023-03-01T01:03:58;26.53;;;18.57;;
10154;SDS011;5118;48.570;7.916;2023-03-01T01:06:28;25.17;;;18.17;;
10154;SDS011;5118;48.570;7.916;2023-03-01T01:08:58;25.57;;;18.30;;
10154;SDS011;5118;48.570;7.916;2023-03-01T01:11:28;28.13;;;18.63;;
10154;SDS011;5118;48.570;7.916;2023-03-01T01:13:59;28.23;;;18.63;;
10154;SDS011;5118;48.570;7.916;2023-03-01T01:16:28;27.63;;;18.80;;
10154;SDS011;5118;48.570;7.916;2023-03-01T01:18:57;27.00;;;18.37;;
10154;SDS011;5118;48.570;7.916;2023-03-01T01:21:26;25.00;;;17.53;;
10154;SDS011;5118;48.570;7.916;2023-03-01T01:23:55;25.23;;;17.77;;
10154;SDS011;5118;48.570;7.916;2023-03-01T01:26:25;26.33;;;18.17;;
10154;SDS011;5118;48.570;7.916;2023-03-01T01:28:56;25.17;;;16.93;;
10154;SDS011;5118;48.570;7.916;2023-03-01T01:31:26;26.57;;;17.53;;
10154;SDS011;5118;48.570;7.916;2023-03-01T01:33:56;24.30;;;17.70;;
10154;SDS011;5118;48.570;7.916;2023-03-01T01:36:25;30.30;;;17.77;;
10154;SDS011;5118;48.570;7.916;2023-03-01T01:38:54;27.30;;;17.80;;
10154;SDS011;5118;48.570;7.916;2023-03-01T01:41:23;26.77;;;17.77;;
10154;SDS011;5118;48.570;7.916;2023-03-01T01:46:40;28.43;;;19.23;;
10154;SDS011;5118;48.570;7.916;2023-03-01T01:49:14;27.30;;;19.00;;
10154;SDS011;5118;48.570;7.916;2023-03-01T01:51:48;30.30;;;18.37;;
10154;SDS011;5118;48.570;7.916;2023-03-01T01:54:23;26.83;;;17.70;;
10154;SDS011;5118;48.570;7.916;2023-03-01T01:56:55;25.93;;;17.30;;
10154;SDS011;5118;48.570;7.916;2023-03-01T01:59:27;25.20;;;17.63;;
10154;SDS011;5118;48.570;7.916;2023-03-01T02:01:59;26.03;;;18.07;;
10154;SDS011;5118;48.570;7.916;2023-03-01T02:04:29;23.97;;;16.60;;
10154;SDS011;5118;48.570;7.916;2023-03-01T02:06:59;27.43;;;17.80;;
10154;SDS011;5118;48.570;7.916;2023-03-01T02:09:32;24.50;;;17.23;;
10154;SDS011;5118;48.570;7.916;2023-03-01T02:12:02;24.57;;;17.07;;
10154;SDS011;5118;48.570;7.916;2023-03-01T02:14:32;25.43;;;17.00;;
10154;SDS011;5118;48.570;7.916;2023-03-01T02:17:02;27.23;;;17.97;;
10154;SDS011;5118;48.570;7.916;2023-03-01T02:19:40;25.83;;;18.20;;
10154;SDS011;5118;48.570;7.916;2023-03-01T02:22:17;28.13;;;17.87;;
10154;SDS011;5118;48.570;7.916;2023-03-01T02:24:53;26.47;;;17.77;;
10154;SDS011;5118;48.570;7.916;2023-03-01T02:27:30;27.37;;;18.00;;
10154;SDS011;5118;48.570;7.916;2023-03-01T02:30:05;25.43;;;17.10;;
10154;SDS011;5118;48.570;7.916;2023-03-01T02:32:34;24.30;;;17.37;;
10154;SDS011;5118;48.570;7.916;2023-03-01T02:35:01;25.33;;;17.50;;
10154;SDS011;5118;48.570;7.916;2023-03-01T02:37:33;24.23;;;17.43;;
10154;SDS011;5118;48.570;7.916;2023-03-01T02:40:04;26.27;;;17.40;;
10154;SDS011;5118;48.570;7.916;2023-03-01T02:42:40;25.07;;;17.67;;
10154;SDS011;5118;48.570;7.916;2023-03-01T02:45:14;27.30;;;18.57;;
10154;SDS011;5118;48.570;7.916;2023-03-01T02:47:43;24.97;;;17.90;;
10154;SDS011;5118;48.570;7.916;2023-03-01T02:50:18;28.57;;;18.30;;
10154;SDS011;5118;48.570;7.916;2023-03-01T02:53:00;25.00;;;17.97;;
10154;SDS011;5118;48.570;7.916;2023-03-01T02:55:35;29.33;;;17.90;;
10154;SDS011;5118;48.570;7.916;2023-03-01T02:58:03;25.97;;;17.93;;
10154;SDS011;5118;48.570;7.916;2023-03-01T03:00:35;27.03;;;17.57;;
10154;SDS011;5118;48.570;7.916;2023-03-01T03:03:07;25.90;;;18.07;;
10154;SDS011;5118;48.570;7.916;2023-03-01T03:05:35;27.27;;;17.63;;
10154;SDS011;5118;48.570;7.916;2023-03-01T03:08:03;26.47;;;17.40;;
10154;SDS011;5118;48.570;7.916;2023-03-01T03:10:36;26.10;;;18.17;;
10154;SDS011;5118;48.570;7.916;2023-03-01T03:13:07;25.20;;;17.43;;
10154;SDS011;5118;48.570;7.916;2023-03-01T03:15:39;26.37;;;18.03;;
10154;SDS011;5118;48.570;7.916;2023-03-01T03:18:09;29.10;;;18.43;;
10154;SDS011;5118;48.570;7.916;2023-03-01T03:20:40;28.17;;;17.57;;
10154;SDS011;5118;48.570;7.916;2023-03-01T03:23:09;26.00;;;18.40;;
10154;SDS011;5118;48.570;7.916;2023-03-01T03:25:38;26.00;;;18.17;;
10154;SDS011;5118;48.570;7.916;2023-03-01T03:28:07;26.27;;;17.53;;
10154;SDS011;5118;48.570;7.916;2023-03-01T03:30:39;28.50;;;18.00;;
10154;SDS011;5118;48.570;7.916;2023-03-01T03:33:08;28.50;;;19.07;;
10154;SDS011;5118;48.570;7.916;2023-03-01T03:35:40;26.07;;;18.40;;
10154;SDS011;5118;48.570;7.916;2023-03-01T03:38:11;26.37;;;17.47;;
10154;SDS011;5118;48.570;7.916;2023-03-01T03:40:44;26.23;;;17.93;;
10154;SDS011;5118;48.570;7.916;2023-03-01T03:43:14;28.40;;;17.90;;
10154;SDS011;5118;48.570;7.916;2023-03-01T03:45:45;25.50;;;17.77;;
10154;SDS011;5118;48.570;7.916;2023-03-01T03:48:14;29.70;;;18.73;;
10154;SDS011;5118;48.570;7.916;2023-03-01T03:50:47;26.60;;;17.87;;
10154;SDS011;5118;48.570;7.916;2023-03-01T03:53:16;26.40;;;18.33;;
10154;SDS011;5118;48.570;7.916;2023-03-01T03:55:45;25.43;;;18.00;;
10154;SDS011;5118;48.570;7.916;2023-03-01T03:58:16;27.27;;;18.80;;
10154;SDS011;5118;48.570;7.916;2023-03-01T04:00:48;27.93;;;19.03;;
10154;SDS011;5118;48.570;7.916;2023-03-01T04:03:18;26.87;;;18.53;;
10154;SDS011;5118;48.570;7.916;2023-03-01T04:05:48;27.67;;;18.73;;
10154;SDS011;5118;48.570;7.916;2023-03-01T04:08:17;27.57;;;18.80;;
10154;SDS011;5118;48.570;7.916;2023-03-01T04:10:48;27.03;;;19.03;;
10154;SDS011;5118;48.570;7.916;2023-03-01T04:13:18;28.93;;;19.20;;
10154;SDS011;5118;48.570;7.916;2023-03-01T04:15:50;28.50;;;19.07;;
10154;SDS011;5118;48.570;7.916;2023-03-01T04:18:19;31.63;;;19.50;;
10154;SDS011;5118;48.570;7.916;2023-03-01T04:20:48;28.27;;;18.23;;
10154;SDS011;5118;48.570;7.916;2023-03-01T04:23:19;28.87;;;19.17;;
10154;SDS011;5118;48.570;7.916;2023-03-01T04:25:49;28.03;;;19.47;;
10154;SDS011;5118;48.570;7.916;2023-03-01T04:28:21;30.53;;;19.73;;
10154;SDS011;5118;48.570;7.916;2023-03-01T04:30:53;30.90;;;20.27;;
10154;SDS011;5118;48.570;7.916;2023-03-01T04:33:23;31.57;;;20.30;;
10154;SDS011;5118;48.570;7.916;2023-03-01T04:35:52;29.87;;;19.77;;
10154;SDS011;5118;48.570;7.916;2023-03-01T04:38:20;30.23;;;20.47;;
10154;SDS011;5118;48.570;7.916;2023-03-01T04:40:49;29.10;;;19.57;;
10154;SDS011;5118;48.570;7.916;2023-03-01T04:43:17;29.00;;;19.07;;
10154;SDS011;5118;48.570;7.916;2023-03-01T04:45:45;28.47;;;19.17;;
10154;SDS011;5118;48.570;7.916;2023-03-01T04:48:15;31.83;;;19.60;;
10154;SDS011;5118;48.570;7.916;2023-03-01T04:50:43;28.60;;;19.80;;
10154;SDS011;5118;48.570;7.916;2023-03-01T04:53:11;29.10;;;20.03;;
10154;SDS011;5118;48.570;7.916;2023-03-01T04:55:40;28.33;;;19.47;;
10154;SDS011;5118;48.570;7.916;2023-03-01T04:58:08;30.33;;;20.27;;
10154;SDS011;5118;48.570;7.916;2023-03-01T05:00:36;33.23;;;20.40;;
10154;SDS011;5118;48.570;7.916;2023-03-01T05:03:05;29.53;;;20.23;;
10154;SDS011;5118;48.570;7.916;2023-03-01T05:05:35;32.93;;;20.70;;
10154;SDS011;5118;48.570;7.916;2023-03-01T05:08:05;28.30;;;20.20;;
10154;SDS011;5118;48.570;7.916;2023-03-01T05:10:35;30.73;;;20.57;;
10154;SDS011;5118;48.570;7.916;2023-03-01T05:13:05;31.73;;;20.97;;
10154;SDS011;5118;48.570;7.916;2023-03-01T05:15:33;31.27;;;21.07;;
10154;SDS011;5118;48.570;7.916;2023-03-01T05:18:03;33.83;;;22.63;;
10154;SDS011;5118;48.570;7.916;2023-03-01T05:20:35;35.97;;;24.20;;
10154;SDS011;5118;48.570;7.916;2023-03-01T05:23:04;37.83;;;24.43;;
10154;SDS011;5118;48.570;7.916;2023-03-01T05:25:33;36.33;;;23.23;;
10154;SDS011;5118;48.570;7.916;2023-03-01T05:28:07;31.13;;;20.90;;
10154;SDS011;5118;48.570;7.916;2023-03-01T05:30:39;29.80;;;20.50;;
10154;SDS011;5118;48.570;7.916;2023-03-01T05:33:08;32.50;;;20.17;;
10154;SDS011;5118;48.570;7.916;2023-03-01T05:35:41;34.33;;;21.93;;
10154;SDS011;5118;48.570;7.916;2023-03-01T05:38:11;29.53;;;19.53;;
10154;SDS011;5118;48.570;7.916;2023-03-01T05:40:40;33.20;;;22.33;;
10154;SDS011;5118;48.570;7.916;2023-03-01T05:43:10;33.37;;;21.30;;
10154;SDS011;5118;48.570;7.916;2023-03-01T05:45:39;32.63;;;22.00;;
10154;SDS011;5118;48.570;7.916;2023-03-01T05:48:08;32.07;;;21.87;;
10154;SDS011;5118;48.570;7.916;2023-03-01T05:50:38;33.43;;;21.33;;
10154;SDS011;5118;48.570;7.916;2023-03-01T05:53:09;31.83;;;21.13;;
10154;SDS011;5118;48.570;7.916;2023-03-01T05:55:39;31.37;;;20.53;;
10154;SDS011;5118;48.570;7.916;2023-03-01T05:58:09;33.23;;;21.23;;
10154;SDS011;5118;48.570;7.916;2023-03-01T06:00:40;31.40;;;19.33;;
10154;SDS011;5118;48.570;7.916;2023-03-01T06:03:09;34.13;;;20.93;;
10154;SDS011;5118;48.570;7.916;2023-03-01T06:05:39;32.27;;;21.00;;
10154;SDS011;5118;48.570;7.916;2023-03-01T06:08:10;34.03;;;22.70;;
10154;SDS011;5118;48.570;7.916;2023-03-01T06:10:39;35.13;;;22.43;;
10154;SDS011;5118;48.570;7.916;2023-03-01T06:13:07;33.50;;;22.23;;
10154;SDS011;5118;48.570;7.916;2023-03-01T06:15:35;32.27;;;21.20;;
10154;SDS011;5118;48.570;7.916;2023-03-01T06:18:04;32.73;;;21.63;;
10154;SDS011;5118;48.570;7.916;2023-03-01T06:20:32;34.87;;;22.73;;
10154;SDS011;5118;48.570;7.916;2023-03-01T06:23:00;34.23;;;22.83;;
10154;SDS011;5118;48.570;7.916;2023-03-01T06:25:30;33.73;;;22.80;;
10154;SDS011;5118;48.570;7.916;2023-03-01T06:27:58;34.63;;;22.57;;
10154;SDS011;5118;48.570;7.916;2023-03-01T06:30:27;35.97;;;22.17;;
10154;SDS011;5118;48.570;7.916;2023-03-01T06:32:56;37.40;;;22.87;;
10154;SDS011;5118;48.570;7.916;2023-03-01T06:35:27;37.83;;;23.33;;
10154;SDS011;5118;48.570;7.916;2023-03-01T06:37:58;34.43;;;21.60;;
10154;SDS011;5118;48.570;7.916;2023-03-01T06:40:27;36.73;;;23.03;;
10154;SDS011;5118;48.570;7.916;2023-03-01T06:42:57;36.17;;;22.67;;
10154;SDS011;5118;48.570;7.916;2023-03-01T06:45:25;39.47;;;25.13;;
10154;SDS011;5118;48.570;7.916;2023-03-01T06:48:00;37.33;;;23.87;;
10154;SDS011;5118;48.570;7.916;2023-03-01T06:50:30;39.63;;;25.60;;
10154;SDS011;5118;48.570;7.916;2023-03-01T06:52:58;41.37;;;26.63;;
10154;SDS011;5118;48.570;7.916;2023-03-01T06:55:27;41.90;;;27.47;;
10154;SDS011;5118;48.570;7.916;2023-03-01T06:57:57;37.60;;;24.47;;
10154;SDS011;5118;48.570;7.916;2023-03-01T07:00:26;33.27;;;22.33;;
10154;SDS011;5118;48.570;7.916;2023-03-01T07:02:57;32.37;;;22.43;;
10154;SDS011;5118;48.570;7.916;2023-03-01T07:05:26;45.73;;;31.03;;
10154;SDS011;5118;48.570;7.916;2023-03-01T07:07:57;41.67;;;28.67;;
10154;SDS011;5118;48.570;7.916;2023-03-01T07:10:25;36.60;;;23.33;;
10154;SDS011;5118;48.570;7.916;2023-03-01T07:12:57;32.13;;;21.20;;
10154;SDS011;5118;48.570;7.916;2023-03-01T07:15:29;33.73;;;22.90;;
10154;SDS011;5118;48.570;7.916;2023-03-01T07:18:04;40.07;;;28.13;;
10154;SDS011;5118;48.570;7.916;2023-03-01T07:20:44;47.57;;;30.03;;
10154;SDS011;5118;48.570;7.916;2023-03-01T07:23:12;33.00;;;22.13;;
10154;SDS011;5118;48.570;7.916;2023-03-01T07:25:41;56.50;;;32.37;;
10154;SDS011;5118;48.570;7.916;2023-03-01T07:28:11;46.67;;;28.53;;
10154;SDS011;5118;48.570;7.916;2023-03-01T07:30:39;31.27;;;21.47;;
10154;SDS011;5118;48.570;7.916;2023-03-01T07:33:08;33.97;;;22.53;;
10154;SDS011;5118;48.570;7.916;2023-03-01T07:35:36;39.87;;;25.80;;
10154;SDS011;5118;48.570;7.916;2023-03-01T07:38:04;45.03;;;27.27;;
10154;SDS011;5118;48.570;7.916;2023-03-01T07:40:32;36.90;;;23.90;;
10154;SDS011;5118;48.570;7.916;2023-03-01T07:43:01;33.37;;;22.47;;
10154;SDS011;5118;48.570;7.916;2023-03-01T07:45:30;51.60;;;34.50;;
10154;SDS011;5118;48.570;7.916;2023-03-01T07:47:59;36.77;;;24.80;;
10154;SDS011;5118;48.570;7.916;2023-03-01T07:50:27;32.77;;;22.37;;
10154;SDS011;5118;48.570;7.916;2023-03-01T07:52:56;33.03;;;22.30;;
10154;SDS011;5118;48.570;7.916;2023-03-01T07:55:24;33.70;;;22.00;;
10154;SDS011;5118;48.570;7.916;2023-03-01T07:57:52;31.10;;;23.37;;
10154;SDS011;5118;48.570;7.916;2023-03-01T08:00:21;37.60;;;27.33;;
10154;SDS011;5118;48.570;7.916;2023-03-01T08:02:51;30.70;;;21.67;;
10154;SDS011;5118;48.570;7.916;2023-03-01T08:05:19;31.97;;;22.57;;
10154;SDS011;5118;48.570;7.916;2023-03-01T08:07:48;35.77;;;25.43;;
10154;SDS011;5118;48.570;7.916;2023-03-01T08:10:17;28.53;;;19.73;;
10154;SDS011;5118;48.570;7.916;2023-03-01T08:12:45;31.63;;;22.43;;
10154;SDS011;5118;48.570;7.916;2023-03-01T08:15:14;32.73;;;22.47;;
10154;SDS011;5118;48.570;7.916;2023-03-01T08:17:42;31.43;;;22.53;;
10154;SDS011;5118;48.570;7.916;2023-03-01T08:20:12;29.40;;;21.13;;
10154;SDS011;5118;48.570;7.916;2023-03-01T08:22:41;26.07;;;18.70;;
10154;SDS011;5118;48.570;7.916;2023-03-01T08:25:09;31.13;;;22.23;;
10154;SDS011;5118;48.570;7.916;2023-03-01T08:27:37;30.27;;;21.40;;
10154;SDS011;5118;48.570;7.916;2023-03-01T08:30:06;28.97;;;20.90;;
10154;SDS011;5118;48.570;7.916;2023-03-01T08:32:36;27.90;;;19.60;;
10154;SDS011;5118;48.570;7.916;2023-03-01T08:35:05;29.10;;;21.83;;
10154;SDS011;5118;48.570;7.916;2023-03-01T08:37:36;27.43;;;20.37;;
10154;SDS011;5118;48.570;7.916;2023-03-01T08:40:08;28.03;;;21.30;;
10154;SDS011;5118;48.570;7.916;2023-03-01T08:42:40;28.43;;;19.97;;
10154;SDS011;5118;48.570;7.916;2023-03-01T08:45:10;29.67;;;21.47;;
10154;SDS011;5118;48.570;7.916;2023-03-01T08:47:40;28.23;;;21.83;;
10154;SDS011;5118;48.570;7.916;2023-03-01T08:50:09;28.57;;;21.23;;
10154;SDS011;5118;48.570;7.916;2023-03-01T08:52:39;29.50;;;20.83;;
10154;SDS011;5118;48.570;7.916;2023-03-01T08:55:07;27.93;;;20.77;;
10154;SDS011;5118;48.570;7.916;2023-03-01T08:57:36;26.87;;;20.83;;
10154;SDS011;5118;48.570;7.916;2023-03-01T09:00:05;28.20;;;21.07;;
10154;SDS011;5118;48.570;7.916;2023-03-01T09:02:36;26.93;;;20.07;;
10154;SDS011;5118;48.570;7.916;2023-03-01T09:05:05;26.37;;;21.03;;
10154;SDS011;5118;48.570;7.916;2023-03-01T09:07:34;24.90;;;20.10;;
10154;SDS011;5118;48.570;7.916;2023-03-01T09:10:04;30.63;;;21.13;;
10154;SDS011;5118;48.570;7.916;2023-03-01T09:12:33;28.97;;;21.03;;
10154;SDS011;5118;48.570;7.916;2023-03-01T09:15:02;28.47;;;21.80;;
10154;SDS011;5118;48.570;7.916;2023-03-01T09:17:31;28.00;;;21.43;;
10154;SDS011;5118;48.570;7.916;2023-03-01T09:19:59;27.60;;;21.10;;
10154;SDS011;5118;48.570;7.916;2023-03-01T09:22:28;27.17;;;20.63;;
10154;SDS011;5118;48.570;7.916;2023-03-01T09:24:56;29.77;;;21.20;;
10154;SDS011;5118;48.570;7.916;2023-03-01T09:27:27;29.73;;;21.90;;
10154;SDS011;5118;48.570;7.916;2023-03-01T09:29:55;26.57;;;20.20;;
10154;SDS011;5118;48.570;7.916;2023-03-01T09:32:23;26.40;;;20.90;;
10154;SDS011;5118;48.570;7.916;2023-03-01T09:34:52;25.10;;;20.13;;
10154;SDS011;5118;48.570;7.916;2023-03-01T09:37:31;27.57;;;21.10;;
10154;SDS011;5118;48.570;7.916;2023-03-01T09:40:00;27.07;;;20.53;;
10154;SDS011;5118;48.570;7.916;2023-03-01T09:42:31;26.50;;;20.63;;
10154;SDS011;5118;48.570;7.916;2023-03-01T09:45:03;26.77;;;20.43;;
10154;SDS011;5118;48.570;7.916;2023-03-01T09:47:34;25.70;;;20.53;;
10154;SDS011;5118;48.570;7.916;2023-03-01T09:50:04;25.57;;;19.53;;
10154;SDS011;5118;48.570;7.916;2023-03-01T09:52:38;26.03;;;19.00;;
10154;SDS011;5118;48.570;7.916;2023-03-01T09:55:11;26.47;;;20.83;;
10154;SDS011;5118;48.570;7.916;2023-03-01T09:57:45;26.70;;;20.20;;
10154;SDS011;5118;48.570;7.916;2023-03-01T10:00:22;27.17;;;20.10;;
10154;SDS011;5118;48.570;7.916;2023-03-01T10:02:58;26.83;;;20.63;;
10154;SDS011;5118;48.570;7.916;2023-03-01T10:05:50;26.80;;;21.37;;
10154;SDS011;5118;48.570;7.916;2023-03-01T10:08:29;27.20;;;20.13;;
10154;SDS011;5118;48.570;7.916;2023-03-01T10:11:03;26.87;;;20.67;;
10154;SDS011;5118;48.570;7.916;2023-03-01T10:13:37;28.03;;;21.27;;
10154;SDS011;5118;48.570;7.916;2023-03-01T10:16:13;26.70;;;21.10;;
10154;SDS011;5118;48.570;7.916;2023-03-01T10:18:47;25.53;;;20.30;;
10154;SDS011;5118;48.570;7.916;2023-03-01T10:21:22;29.77;;;22.13;;
10154;SDS011;5118;48.570;7.916;2023-03-01T10:23:51;26.67;;;20.73;;
10154;SDS011;5118;48.570;7.916;2023-03-01T10:26:31;24.30;;;19.67;;
10154;SDS011;5118;48.570;7.916;2023-03-01T10:29:08;26.80;;;21.00;;
10154;SDS011;5118;48.570;7.916;2023-03-01T10:31:41;26.63;;;21.23;;
10154;SDS011;5118;48.570;7.916;2023-03-01T10:34:13;28.60;;;21.70;;
10154;SDS011;5118;48.570;7.916;2023-03-01T10:36:44;25.90;;;20.17;;
10154;SDS011;5118;48.570;7.916;2023-03-01T10:39:16;28.40;;;21.77;;
10154;SDS011;5118;48.570;7.916;2023-03-01T10:41:59;26.40;;;21.67;;
10154;SDS011;5118;48.570;7.916;2023-03-01T10:44:39;27.03;;;22.30;;
10154;SDS011;5118;48.570;7.916;2023-03-01T10:47:17;30.57;;;24.37;;
10154;SDS011;5118;48.570;7.916;2023-03-01T10:52:55;25.23;;;21.33;;
10154;SDS011;5118;48.570;7.916;2023-03-01T10:55:26;39.80;;;30.77;;
10154;SDS011;5118;48.570;7.916;2023-03-01T10:58:09;25.63;;;20.63;;
10154;SDS011;5118;48.570;7.916;2023-03-01T11:00:48;32.47;;;27.23;;
10154;SDS011;5118;48.570;7.916;2023-03-01T11:03:21;24.27;;;19.83;;
10154;SDS011;5118;48.570;7.916;2023-03-01T11:05:52;25.20;;;22.57;;
10154;SDS011;5118;48.570;7.916;2023-03-01T11:08:36;22.60;;;20.40;;
10154;SDS011;5118;48.570;7.916;2023-03-01T11:11:20;22.43;;;20.13;;
10154;SDS011;5118;48.570;7.916;2023-03-01T11:13:55;24.40;;;21.90;;
10154;SDS011;5118;48.570;7.916;2023-03-01T11:16:27;21.43;;;19.23;;
10154;SDS011;5118;48.570;7.916;2023-03-01T11:19:13;23.43;;;20.93;;
10154;SDS011;5118;48.570;7.916;2023-03-01T11:21:52;27.17;;;24.53;;
10154;SDS011;5118;48.570;7.916;2023-03-01T11:24:26;22.97;;;20.40;;
10154;SDS011;5118;48.570;7.916;2023-03-01T11:26:57;22.27;;;19.97;;
10154;SDS011;5118;48.570;7.916;2023-03-01T11:29:30;22.47;;;20.27;;
10154;SDS011;5118;48.570;7.916;2023-03-01T11:32:15;21.77;;;19.67;;
10154;SDS011;5118;48.570;7.916;2023-03-01T11:34:47;21.70;;;19.45;;
10154;SDS011;5118;48.570;7.916;2023-03-01T11:37:23;21.42;;;19.33;;
10154;SDS011;5118;48.570;7.916;2023-03-01T11:39:59;25.50;;;23.15;;
10154;SDS011;5118;48.570;7.916;2023-03-01T11:42:42;23.40;;;21.15;;
10154;SDS011;5118;48.570;7.916;2023-03-01T11:45:22;25.73;;;23.33;;
10154;SDS011;5118;48.570;7.916;2023-03-01T11:47:58;19.65;;;17.83;;
10154;SDS011;5118;48.570;7.916;2023-03-01T11:50:35;20.27;;;18.23;;
10154;SDS011;5118;48.570;7.916;2023-03-01T11:53:27;20.23;;;18.40;;
10154;SDS011;5118;48.570;7.916;2023-03-01T11:56:16;21.05;;;19.05;;
10154;SDS011;5118;48.570;7.916;2023-03-01T11:59:08;20.80;;;18.58;;
10154;SDS011;5118;48.570;7.916;2023-03-01T12:01:59;20.73;;;18.83;;
10154;SDS011;5118;48.570;7.916;2023-03-01T12:04:57;21.83;;;19.90;;
10154;SDS011;5118;48.570;7.916;2023-03-01T12:07:46;20.85;;;18.83;;
10154;SDS011;5118;48.570;7.916;2023-03-01T12:10:22;21.90;;;19.85;;
10154;SDS011;5118;48.570;7.916;2023-03-01T12:12:58;21.02;;;19.10;;
10154;SDS011;5118;48.570;7.916;2023-03-01T12:15:59;20.45;;;18.40;;
10154;SDS011;5118;48.570;7.916;2023-03-01T12:21:42;20.30;;;18.35;;
10154;SDS011;5118;48.570;7.916;2023-03-01T12:24:28;19.75;;;17.95;;
10154;SDS011;5118;48.570;7.916;2023-03-01T12:27:11;22.55;;;19.10;;
10154;SDS011;5118;48.570;7.916;2023-03-01T12:29:51;19.73;;;17.95;;
10154;SDS011;5118;48.570;7.916;2023-03-01T12:35:23;20.35;;;18.48;;
10154;SDS011;5118;48.570;7.916;2023-03-01T12:38:29;20.98;;;19.00;;
10154;SDS011;5118;48.570;7.916;2023-03-01T12:41:06;18.52;;;16.83;;
10154;SDS011;5118;48.570;7.916;2023-03-01T12:43:54;19.88;;;18.15;;
10154;SDS011;5118;48.570;7.916;2023-03-01T12:46:32;20.00;;;18.20;;
10154;SDS011;5118;48.570;7.916;2023-03-01T12:49:15;20.63;;;18.63;;
10154;SDS011;5118;48.570;7.916;2023-03-01T12:51:50;19.77;;;18.00;;
10154;SDS011;5118;48.570;7.916;2023-03-01T12:54:27;31.23;;;28.02;;
10154;SDS011;5118;48.570;7.916;2023-03-01T12:56:59;35.63;;;31.48;;
10154;SDS011;5118;48.570;7.916;2023-03-01T12:59:37;21.17;;;19.25;;
10154;SDS011;5118;48.570;7.916;2023-03-01T13:02:14;19.20;;;17.40;;
10154;SDS011;5118;48.570;7.916;2023-03-01T13:04:54;20.42;;;18.63;;
10154;SDS011;5118;48.570;7.916;2023-03-01T13:07:34;20.40;;;18.58;;
10154;SDS011;5118;48.570;7.916;2023-03-01T13:10:20;22.55;;;20.55;;
10154;SDS011;5118;48.570;7.916;2023-03-01T13:13:01;21.55;;;19.55;;
10154;SDS011;5118;48.570;7.916;2023-03-01T13:15:38;20.63;;;18.30;;
10154;SDS011;5118;48.570;7.916;2023-03-01T13:18:28;21.83;;;19.60;;
10154;SDS011;5118;48.570;7.916;2023-03-01T13:20:59;19.77;;;18.08;;
10154;SDS011;5118;48.570;7.916;2023-03-01T13:23:30;19.67;;;17.77;;
10154;SDS011;5118;48.570;7.916;2023-03-01T13:26:07;20.35;;;18.65;;
10154;SDS011;5118;48.570;7.916;2023-03-01T13:28:52;18.95;;;17.15;;
10154;SDS011;5118;48.570;7.916;2023-03-01T13:34:45;20.15;;;18.02;;
10154;SDS011;5118;48.570;7.916;2023-03-01T13:37:24;20.63;;;18.77;;
10154;SDS011;5118;48.570;7.916;2023-03-01T13:40:07;19.30;;;17.50;;
10154;SDS011;5118;48.570;7.916;2023-03-01T13:43:30;19.58;;;17.88;;
10154;SDS011;5118;48.570;7.916;2023-03-01T13:46:00;19.08;;;17.30;;
10154;SDS011;5118;48.570;7.916;2023-03-01T13:48:36;21.45;;;19.38;;
10154;SDS011;5118;48.570;7.916;2023-03-01T13:51:07;21.50;;;19.27;;
10154;SDS011;5118;48.570;7.916;2023-03-01T13:53:39;21.48;;;19.58;;
10154;SDS011;5118;48.570;7.916;2023-03-01T13:56:11;19.98;;;18.08;;
10154;SDS011;5118;48.570;7.916;2023-03-01T13:58:48;19.98;;;18.13;;
10154;SDS011;5118;48.570;7.916;2023-03-01T14:01:26;20.10;;;18.27;;
10154;SDS011;5118;48.570;7.916;2023-03-01T14:03:57;21.63;;;19.55;;
10154;SDS011;5118;48.570;7.916;2023-03-01T14:06:28;20.15;;;18.17;;
10154;SDS011;5118;48.570;7.916;2023-03-01T14:09:02;21.42;;;19.50;;
10154;SDS011;5118;48.570;7.916;2023-03-01T14:14:44;19.05;;;17.42;;
10154;SDS011;5118;48.570;7.916;2023-03-01T14:20:18;18.63;;;16.73;;
10154;SDS011;5118;48.570;7.916;2023-03-01T14:22:48;19.88;;;18.17;;
10154;SDS011;5118;48.570;7.916;2023-03-01T14:25:24;20.42;;;18.45;;
10154;SDS011;5118;48.570;7.916;2023-03-01T14:27:59;20.40;;;18.30;;
10154;SDS011;5118;48.570;7.916;2023-03-01T14:30:34;19.38;;;17.65;;
10154;SDS011;5118;48.570;7.916;2023-03-01T14:33:06;20.20;;;18.20;;
10154;SDS011;5118;48.570;7.916;2023-03-01T14:35:54;20.65;;;18.63;;
10154;SDS011;5118;48.570;7.916;2023-03-01T14:38:29;19.80;;;17.95;;
10154;SDS011;5118;48.570;7.916;2023-03-01T14:41:02;20.50;;;18.60;;
10154;SDS011;5118;48.570;7.916;2023-03-01T14:43:34;18.10;;;16.50;;
10154;SDS011;5118;48.570;7.916;2023-03-01T14:46:05;20.23;;;18.42;;
10154;SDS011;5118;48.570;7.916;2023-03-01T14:48:33;20.10;;;18.10;;
10154;SDS011;5118;48.570;7.916;2023-03-01T14:51:01;18.95;;;17.05;;
10154;SDS011;5118;48.570;7.916;2023-03-01T14:53:32;18.92;;;17.10;;
10154;SDS011;5118;48.570;7.916;2023-03-01T14:56:16;20.52;;;17.70;;
10154;SDS011;5118;48.570;7.916;2023-03-01T14:58:46;30.80;;;27.60;;
10154;SDS011;5118;48.570;7.916;2023-03-01T15:01:19;24.95;;;22.42;;
10154;SDS011;5118;48.570;7.916;2023-03-01T15:03:49;20.85;;;18.83;;
10154;SDS011;5118;48.570;7.916;2023-03-01T15:06:19;21.02;;;19.02;;
10154;SDS011;5118;48.570;7.916;2023-03-01T15:08:50;20.25;;;18.35;;
10154;SDS011;5118;48.570;7.916;2023-03-01T15:11:20;22.63;;;20.55;;
10154;SDS011;5118;48.570;7.916;2023-03-01T15:13:51;21.45;;;19.20;;
10154;SDS011;5118;48.570;7.916;2023-03-01T15:16:23;21.92;;;19.83;;
10154;SDS011;5118;48.570;7.916;2023-03-01T15:18:54;19.35;;;17.55;;
10154;SDS011;5118;48.570;7.916;2023-03-01T15:21:25;21.40;;;19.15;;
10154;SDS011;5118;48.570;7.916;2023-03-01T15:23:57;20.27;;;18.13;;
10154;SDS011;5118;48.570;7.916;2023-03-01T15:26:29;20.73;;;18.73;;